createdAt,value
2024-04-13T16:43:11.377Z,533.00
2024-04-13T16:43:22.389Z,464.00
2024-04-13T16:43:45.580Z,437.00
2024-04-13T16:43:56.594Z,439.00
2024-04-13T16:44:06.609Z,424.00
2024-04-13T16:44:16.618Z,429.00
2024-04-13T16:44:29.946Z,414.00
2024-04-13T16:44:36.651Z,424.00
2024-04-13T16:44:46.690Z,407.00
2024-04-13T16:44:56.697Z,410.00
2024-04-13T16:45:06.685Z,410.00
2024-04-13T16:45:16.847Z,411.00
2024-04-13T16:45:26.762Z,413.00
2024-04-13T16:45:36.768Z,413.00
2024-04-13T16:45:46.842Z,410.00
2024-04-13T16:45:56.774Z,407.00
2024-04-13T16:46:06.742Z,408.00
2024-04-13T16:46:19.019Z,407.00
2024-04-13T16:46:26.802Z,407.00
2024-04-13T16:46:36.856Z,409.00
2024-04-13T16:46:46.888Z,409.00
2024-04-13T16:46:56.886Z,408.00
2024-04-13T16:47:06.917Z,407.00
2024-04-13T16:47:16.962Z,408.00
2024-04-13T16:47:27.046Z,407.00
2024-04-13T16:47:37.023Z,408.00
2024-04-13T16:47:47.136Z,406.00
2024-04-13T16:47:57.073Z,407.00
2024-04-13T16:48:07.123Z,407.00
2024-04-13T16:48:17.207Z,407.00
2024-04-13T16:48:27.196Z,406.00
2024-04-13T16:48:37.333Z,406.00
2024-04-13T16:48:47.117Z,408.00
2024-04-13T16:48:57.217Z,407.00
2024-04-13T16:49:07.238Z,407.00
2024-04-13T16:49:17.169Z,406.00
2024-04-13T16:49:27.172Z,406.00
2024-04-13T16:49:37.155Z,406.00
2024-04-13T16:49:47.237Z,406.00
2024-04-13T16:49:57.224Z,406.00
2024-04-13T16:50:07.219Z,407.00
2024-04-13T16:50:17.253Z,406.00
2024-04-13T16:50:27.314Z,409.00
2024-04-13T16:50:37.272Z,408.00
2024-04-13T16:50:47.309Z,406.00
2024-04-13T16:50:57.336Z,400.00
2024-04-13T16:51:07.376Z,405.00
2024-04-13T16:51:17.384Z,407.00
2024-04-13T16:51:27.385Z,403.00
2024-04-13T16:51:41.790Z,401.00
2024-04-13T16:51:47.485Z,404.00
2024-04-13T16:51:57.498Z,403.00
2024-04-13T16:52:07.587Z,403.00
2024-04-13T16:52:17.478Z,401.00
2024-04-13T16:52:27.461Z,401.00
2024-04-13T16:52:37.487Z,400.00
2024-04-13T16:52:47.566Z,401.00
2024-04-13T16:52:57.528Z,401.00
2024-04-13T16:53:07.686Z,401.00
2024-04-13T16:53:17.597Z,400.00
2024-04-13T16:53:27.608Z,400.00
2024-04-13T16:53:37.699Z,400.00
2024-04-13T16:53:47.655Z,400.00
2024-04-13T16:53:57.664Z,398.00
2024-04-13T16:54:07.704Z,397.00
2024-04-13T16:54:17.766Z,398.00
2024-04-13T16:54:27.770Z,397.00
2024-04-13T16:54:37.785Z,396.00
2024-04-13T16:54:47.811Z,397.00
2024-04-13T16:54:57.809Z,397.00
2024-04-13T16:55:07.784Z,396.00
2024-04-13T16:55:17.801Z,394.00
2024-04-13T16:55:27.825Z,394.00
2024-04-13T16:55:37.848Z,394.00
2024-04-13T16:55:47.882Z,394.00
2024-04-13T16:55:57.882Z,395.00
2024-04-13T16:56:07.884Z,393.00
2024-04-13T16:56:17.913Z,394.00
2024-04-13T16:56:27.915Z,394.00
2024-04-13T16:56:37.942Z,393.00
2024-04-13T16:56:47.935Z,395.00
2024-04-13T16:56:57.960Z,395.00
2024-04-13T16:57:08.017Z,398.00
2024-04-13T16:57:18.001Z,396.00
2024-04-13T16:57:28.093Z,397.00
2024-04-13T16:57:38.102Z,396.00
2024-04-13T16:57:48.164Z,397.00
2024-04-13T16:57:58.127Z,399.00
2024-04-13T16:58:08.094Z,400.00
2024-04-13T16:58:18.130Z,400.00
2024-04-13T16:58:28.158Z,401.00
2024-04-13T16:58:38.156Z,402.00
2024-04-13T16:58:48.148Z,400.00
2024-04-13T16:58:58.182Z,403.00
2024-04-13T16:59:08.205Z,406.00
2024-04-13T16:59:18.220Z,407.00
2024-04-13T16:59:28.229Z,406.00
2024-04-13T16:59:38.250Z,408.00
2024-04-13T16:59:48.312Z,409.00
2024-04-13T16:59:58.285Z,412.00
2024-04-13T17:00:08.341Z,407.00
2024-04-13T17:00:18.363Z,405.00
2024-04-13T17:00:28.375Z,409.00
2024-04-13T17:00:38.412Z,407.00
2024-04-13T17:00:48.438Z,406.00
2024-04-13T17:00:58.511Z,404.00
2024-04-13T17:01:08.464Z,404.00
2024-04-13T17:01:18.515Z,403.00
2024-04-13T17:01:28.431Z,405.00
2024-04-13T17:01:38.481Z,404.00
2024-04-13T17:01:48.439Z,402.00
2024-04-13T17:01:58.462Z,400.00
2024-04-13T17:02:08.543Z,400.00
2024-04-13T17:02:18.611Z,401.00
2024-04-13T17:02:28.560Z,399.00
2024-04-13T17:02:38.630Z,401.00
2024-04-13T17:02:48.583Z,400.00
2024-04-13T17:03:00.902Z,399.00
2024-04-13T17:03:08.617Z,398.00
2024-04-13T17:03:18.676Z,400.00
2024-04-13T17:03:28.747Z,396.00
2024-04-13T17:03:38.719Z,398.00
2024-04-13T17:03:48.721Z,398.00
2024-04-13T17:03:58.732Z,397.00
2024-04-13T17:04:08.822Z,398.00
2024-04-13T17:04:18.786Z,400.00
2024-04-13T17:04:28.820Z,400.00
2024-04-13T17:04:38.766Z,399.00
2024-04-13T17:04:48.813Z,403.00
2024-04-13T17:04:58.837Z,403.00
2024-04-13T17:05:08.829Z,403.00
2024-04-13T17:05:18.883Z,400.00
2024-04-13T17:05:28.890Z,401.00
2024-04-13T17:05:38.905Z,402.00
2024-04-13T17:05:48.945Z,401.00
2024-04-13T17:05:58.955Z,402.00
2024-04-13T17:06:08.945Z,400.00
2024-04-13T17:06:19.063Z,399.00
2024-04-13T17:06:28.998Z,401.00
2024-04-13T17:06:39.060Z,402.00
2024-04-13T17:06:49.097Z,400.00
2024-04-13T17:06:59.098Z,401.00
2024-04-13T17:07:09.009Z,401.00
2024-04-13T17:07:29.056Z,401.00
2024-04-13T17:07:39.079Z,401.00
2024-04-13T17:07:49.075Z,402.00
2024-04-13T17:07:59.104Z,401.00
2024-04-13T17:08:09.128Z,402.00
2024-04-13T17:08:19.173Z,401.00
2024-04-13T17:08:29.175Z,403.00
2024-04-13T17:08:39.172Z,402.00
2024-04-13T17:08:49.162Z,404.00
2024-04-13T17:08:59.171Z,405.00
2024-04-13T17:09:09.208Z,404.00
2024-04-13T17:09:19.279Z,404.00
2024-04-13T17:09:29.268Z,403.00
2024-04-13T17:09:39.291Z,401.00
2024-04-13T17:09:49.332Z,401.00
2024-04-13T17:09:59.359Z,403.00
2024-04-13T17:10:09.309Z,403.00
2024-04-13T17:10:19.362Z,403.00
2024-04-13T17:10:29.326Z,405.00
2024-04-13T17:10:39.319Z,404.00
2024-04-13T17:10:49.362Z,404.00
2024-04-13T17:10:59.392Z,402.00
2024-04-13T17:11:09.361Z,403.00
2024-04-13T17:11:19.386Z,407.00
2024-04-13T17:11:29.436Z,406.00
2024-04-13T17:11:39.404Z,404.00
2024-04-13T17:11:49.396Z,405.00
2024-04-13T17:11:59.425Z,404.00
2024-04-13T17:12:09.410Z,403.00
2024-04-13T17:12:19.496Z,404.00
2024-04-13T17:12:29.499Z,402.00
2024-04-13T17:12:39.517Z,401.00
2024-04-13T17:12:49.603Z,401.00
2024-04-13T17:12:59.546Z,399.00
2024-04-13T17:13:09.578Z,400.00
2024-04-13T17:13:19.612Z,400.00
2024-04-13T17:13:29.607Z,401.00
2024-04-13T17:13:39.679Z,399.00
2024-04-13T17:13:49.647Z,399.00
2024-04-13T17:13:59.670Z,401.00
2024-04-13T17:14:09.701Z,400.00
2024-04-13T17:14:19.739Z,398.00
2024-04-13T17:14:29.761Z,398.00
2024-04-13T17:14:39.782Z,398.00
2024-04-13T17:14:49.816Z,397.00
2024-04-13T17:14:59.843Z,396.00
2024-04-13T17:15:09.891Z,398.00
2024-04-13T17:15:19.954Z,398.00
2024-04-13T17:15:29.918Z,398.00
2024-04-13T17:15:39.927Z,399.00
2024-04-13T17:15:50.060Z,401.00
2024-04-13T17:15:59.954Z,400.00
2024-04-13T17:16:09.940Z,398.00
2024-04-13T17:16:19.947Z,400.00
2024-04-13T17:16:29.974Z,400.00
2024-04-13T17:16:40.028Z,401.00
2024-04-13T17:16:50.036Z,400.00
2024-04-13T17:17:00.039Z,401.00
2024-04-13T17:17:10.076Z,399.00
2024-04-13T17:17:20.194Z,399.00
2024-04-13T17:17:30.206Z,399.00
2024-04-13T17:17:40.199Z,399.00
2024-04-13T17:17:50.215Z,402.00
2024-04-13T17:18:00.250Z,404.00
2024-04-13T17:18:10.264Z,402.00
2024-04-13T17:18:20.303Z,398.00
2024-04-13T17:18:30.265Z,401.00
2024-04-13T17:18:40.386Z,401.00
2024-04-13T17:18:50.357Z,402.00
2024-04-13T17:19:00.357Z,398.00
2024-04-13T17:19:10.302Z,395.00
2024-04-13T17:19:20.453Z,394.00
2024-04-13T17:19:30.322Z,396.00
2024-04-13T17:19:40.350Z,395.00
2024-04-13T17:19:50.382Z,395.00
2024-04-13T17:20:00.431Z,395.00
2024-04-13T17:20:10.460Z,395.00
2024-04-13T17:20:20.438Z,397.00
2024-04-13T17:20:30.466Z,397.00
2024-04-13T17:20:40.487Z,395.00
2024-04-13T17:20:50.516Z,394.00
2024-04-13T17:21:00.503Z,397.00
2024-04-13T17:21:10.528Z,398.00
2024-04-13T17:21:20.557Z,393.00
2024-04-13T17:21:30.613Z,394.00
2024-04-13T17:21:40.630Z,393.00
2024-04-13T17:21:50.644Z,393.00
2024-04-13T17:22:00.612Z,394.00
2024-04-13T17:22:10.622Z,395.00
2024-04-13T17:22:20.645Z,395.00
2024-04-13T17:22:30.656Z,396.00
2024-04-13T17:22:40.695Z,395.00
2024-04-13T17:22:50.689Z,394.00
2024-04-13T17:23:00.728Z,395.00
2024-04-13T17:23:10.757Z,397.00
2024-04-13T17:23:20.784Z,397.00
2024-04-13T17:23:30.816Z,398.00
2024-04-13T17:23:40.837Z,398.00
2024-04-13T17:23:50.869Z,398.00
2024-04-13T17:24:00.897Z,397.00
2024-04-13T17:24:10.931Z,397.00
2024-04-13T17:24:20.959Z,399.00
2024-04-13T17:24:30.952Z,398.00
2024-04-13T17:24:40.980Z,398.00
2024-04-13T17:24:51.028Z,397.00
2024-04-13T17:25:01.007Z,397.00
2024-04-13T17:25:10.990Z,395.00
2024-04-13T17:25:21.020Z,396.00
2024-04-13T17:25:31.053Z,395.00
2024-04-13T17:25:41.027Z,397.00
2024-04-13T17:25:51.053Z,398.00
2024-04-13T17:26:01.112Z,396.00
2024-04-13T17:26:11.108Z,397.00
2024-04-13T17:26:21.101Z,397.00
2024-04-13T17:26:31.124Z,397.00
2024-04-13T17:26:41.181Z,397.00
2024-04-13T17:26:51.181Z,396.00
2024-04-13T17:27:01.172Z,395.00
2024-04-13T17:27:11.209Z,394.00
2024-04-13T17:27:21.247Z,394.00
2024-04-13T17:27:31.266Z,393.00
2024-04-13T17:27:41.333Z,394.00
2024-04-13T17:27:51.422Z,395.00
2024-04-13T17:28:01.373Z,394.00
2024-04-13T17:28:11.351Z,395.00
2024-04-13T17:28:21.372Z,394.00
2024-04-13T17:28:31.399Z,394.00
2024-04-13T17:28:41.424Z,396.00
2024-04-13T17:28:51.474Z,395.00
2024-04-13T17:29:01.486Z,396.00
2024-04-13T17:29:11.519Z,397.00
2024-04-13T17:29:21.529Z,397.00
2024-04-13T17:29:31.524Z,397.00
2024-04-13T17:29:41.550Z,396.00
2024-04-13T17:29:51.550Z,396.00
2024-04-13T17:30:01.561Z,395.00
2024-04-13T17:30:11.594Z,396.00
2024-04-13T17:30:21.657Z,395.00
2024-04-13T17:30:31.676Z,396.00
2024-04-13T17:30:41.682Z,396.00
2024-04-13T17:30:51.698Z,396.00
2024-04-13T17:31:01.693Z,396.00
2024-04-13T17:31:14.218Z,394.00
2024-04-13T17:31:21.710Z,395.00
2024-04-13T17:31:31.735Z,396.00
2024-04-13T17:31:41.775Z,397.00
2024-04-13T17:31:51.784Z,396.00
2024-04-13T17:32:01.859Z,395.00
2024-04-13T17:32:11.874Z,397.00
2024-04-13T17:32:21.851Z,398.00
2024-04-13T17:32:31.909Z,397.00
2024-04-13T17:32:41.947Z,398.00
2024-04-13T17:32:51.935Z,397.00
2024-04-13T17:33:02.045Z,398.00
2024-04-13T17:33:11.963Z,397.00
2024-04-13T17:33:21.962Z,398.00
